Micco, Florida
Current Conditions -  °F | °C
As of 7:53 PM on Friday 21 Nov 2014 (Local Time) from KVRB Reporting Station
Overcast Overcast  
Wind Chill: 22°   Ceiling: 4800
Heat Index: 22°   Visibility: 10mi
Dew Point: 14°   Wind: 16mph
Humidity: 59%   Direction: 70°ENE
Pressure: 30.24"   Gusts: 25mph
Location:  27.8606°N, 80.5442°W
Report Text: KVRB 220053Z 07014G22KT 10SM OVC048 22/14 A3024 RMK AO2 SLP238 T02220139
Loading
Personal Weather Stations






























Interactive Weather Map New forecast layout! Learn more

10-Day Weather Forecast

Advertisements
Track Severe Weather on mobile